createdAt,value
2023-04-21T06:40:57.762Z,9.50
2023-04-21T06:43:26.120Z,9.70
2023-04-21T06:45:54.231Z,9.70
2023-04-21T06:48:22.356Z,9.90
2023-04-21T06:50:51.861Z,9.80
2023-04-21T06:53:21.716Z,10.00
2023-04-21T06:55:50.325Z,10.00
2023-04-21T06:58:20.646Z,10.00
2023-04-21T07:00:49.641Z,10.30
2023-04-21T07:03:18.042Z,10.50
2023-04-21T07:05:47.220Z,10.70
2023-04-21T07:08:16.816Z,10.80
2023-04-21T07:10:46.168Z,11.10
2023-04-21T07:15:42.784Z,11.40
2023-04-21T07:18:11.069Z,11.50
2023-04-21T07:20:39.442Z,11.40
2023-04-21T07:23:07.628Z,11.50
2023-04-21T07:25:37.181Z,11.80
2023-04-21T07:28:05.407Z,11.80
2023-04-21T07:33:03.383Z,12.20
2023-04-21T07:35:31.571Z,12.30
2023-04-21T07:37:59.844Z,12.50
2023-04-21T07:40:28.115Z,12.50
2023-04-21T07:42:57.613Z,12.30
2023-04-21T07:45:26.491Z,12.60
2023-04-21T07:47:54.962Z,12.70
2023-04-21T07:52:51.670Z,13.10
2023-04-21T07:55:19.912Z,12.80
2023-04-21T07:57:48.079Z,13.10
2023-04-21T08:00:18.594Z,12.90
2023-04-21T08:02:47.221Z,13.10
2023-04-21T08:05:15.729Z,13.60
2023-04-21T08:07:44.150Z,14.10
2023-04-21T08:10:12.504Z,13.80
2023-04-21T08:12:40.686Z,14.50
2023-04-21T08:15:09.619Z,14.80
2023-04-21T08:17:39.616Z,14.70
2023-04-21T08:20:09.214Z,15.20
2023-04-21T08:22:37.769Z,15.50
2023-04-21T08:25:07.070Z,15.60
2023-04-21T08:27:35.469Z,15.90
2023-04-21T08:30:03.762Z,15.40
2023-04-21T08:32:32.138Z,15.00
2023-04-21T08:35:01.750Z,15.00
2023-04-21T08:37:30.513Z,15.20
2023-04-21T08:39:58.661Z,14.90
2023-04-21T08:42:26.941Z,15.50
2023-04-21T08:44:55.181Z,16.30
2023-04-21T08:47:25.235Z,16.80
2023-04-21T08:49:54.382Z,17.20
2023-04-21T08:52:23.885Z,15.80
2023-04-21T08:54:53.335Z,15.40
2023-04-21T08:57:21.791Z,16.10
2023-04-21T08:59:50.113Z,15.80
2023-04-21T09:02:20.463Z,16.60
2023-04-21T09:04:51.711Z,17.30
2023-04-21T09:07:34.094Z,18.20
2023-04-21T09:10:02.392Z,18.60
2023-04-21T09:12:31.143Z,19.20
2023-04-21T09:17:32.731Z,19.70
2023-04-21T09:20:15.451Z,19.60
2023-04-21T09:22:45.640Z,20.10
2023-04-21T09:25:17.901Z,20.60
2023-04-21T09:27:46.896Z,20.40
2023-04-21T09:30:19.718Z,21.20
2023-04-21T09:32:48.030Z,21.40
2023-04-21T09:35:16.295Z,21.70
2023-04-21T09:37:46.254Z,21.80
2023-04-21T09:40:16.090Z,22.30
2023-04-21T09:42:45.037Z,22.70
2023-04-21T09:47:50.477Z,22.00
2023-04-21T09:50:39.208Z,22.20
2023-04-21T09:53:15.682Z,22.80
2023-04-21T09:55:45.030Z,23.30
2023-04-21T09:58:16.211Z,23.60
2023-04-21T10:00:45.012Z,24.00
2023-04-21T17:55:08.923Z,16.00
2023-04-21T23:15:23.321Z,10.30
2023-04-21T23:17:51.497Z,10.30
2023-04-21T23:20:19.873Z,10.20
2023-04-21T23:22:47.976Z,10.00
2023-04-21T23:25:16.148Z,9.80
2023-04-21T23:27:44.308Z,9.80
2023-04-21T23:30:13.413Z,9.80
2023-04-21T23:32:43.751Z,9.90
2023-04-21T23:35:12.012Z,9.90
2023-04-21T23:37:40.418Z,9.80
2023-04-21T23:40:11.358Z,9.90
2023-04-21T23:42:39.735Z,9.80
2023-04-21T23:45:09.441Z,9.80
2023-04-21T23:47:37.627Z,9.80
2023-04-21T23:50:08.549Z,9.60
2023-04-21T23:52:36.795Z,9.40
2023-04-21T23:55:05.411Z,9.40
2023-04-21T23:57:33.565Z,9.50
